sensor_id;sensor_type;location;lat;lon;timestamp;P1;durP1;ratioP1;P2;durP2;ratioP2
55915;SDS011;41826;53.246;-6.670;2023-05-07T00:00:10;9.23;;;3.50;;
55915;SDS011;41826;53.246;-6.670;2023-05-07T00:02:36;10.68;;;3.85;;
55915;SDS011;41826;53.246;-6.670;2023-05-07T00:05:02;18.35;;;4.10;;
55915;SDS011;41826;53.246;-6.670;2023-05-07T00:07:28;10.43;;;4.18;;
55915;SDS011;41826;53.246;-6.670;2023-05-07T00:09:54;15.45;;;4.47;;
55915;SDS011;41826;53.246;-6.670;2023-05-07T00:12:20;7.63;;;3.65;;
55915;SDS011;41826;53.246;-6.670;2023-05-07T00:14:45;12.75;;;4.78;;
55915;SDS011;41826;53.246;-6.670;2023-05-07T00:17:11;8.07;;;3.50;;
55915;SDS011;41826;53.246;-6.670;2023-05-07T00:19:36;15.13;;;3.92;;
55915;SDS011;41826;53.246;-6.670;2023-05-07T00:22:02;12.00;;;3.63;;
55915;SDS011;41826;53.246;-6.670;2023-05-07T00:24:27;13.02;;;4.28;;
55915;SDS011;41826;53.246;-6.670;2023-05-07T00:26:52;9.02;;;3.83;;
55915;SDS011;41826;53.246;-6.670;2023-05-07T00:29:18;10.43;;;3.97;;
55915;SDS011;41826;53.246;-6.670;2023-05-07T00:31:43;13.18;;;4.00;;
55915;SDS011;41826;53.246;-6.670;2023-05-07T00:34:09;10.68;;;4.10;;
55915;SDS011;41826;53.246;-6.670;2023-05-07T00:36:34;15.75;;;4.07;;
55915;SDS011;41826;53.246;-6.670;2023-05-07T00:39:00;14.00;;;4.43;;
55915;SDS011;41826;53.246;-6.670;2023-05-07T00:41:28;10.02;;;4.05;;
55915;SDS011;41826;53.246;-6.670;2023-05-07T00:43:55;16.20;;;4.07;;
55915;SDS011;41826;53.246;-6.670;2023-05-07T00:46:21;10.55;;;3.67;;
55915;SDS011;41826;53.246;-6.670;2023-05-07T00:48:47;13.95;;;4.15;;
55915;SDS011;41826;53.246;-6.670;2023-05-07T00:51:15;10.57;;;4.30;;
55915;SDS011;41826;53.246;-6.670;2023-05-07T00:53:41;14.55;;;4.65;;
55915;SDS011;41826;53.246;-6.670;2023-05-07T00:56:07;9.05;;;4.20;;
55915;SDS011;41826;53.246;-6.670;2023-05-07T00:58:33;13.40;;;3.95;;
55915;SDS011;41826;53.246;-6.670;2023-05-07T01:00:59;10.45;;;4.60;;
55915;SDS011;41826;53.246;-6.670;2023-05-07T01:03:25;16.00;;;4.57;;
55915;SDS011;41826;53.246;-6.670;2023-05-07T01:05:50;14.05;;;4.30;;
55915;SDS011;41826;53.246;-6.670;2023-05-07T01:08:18;20.13;;;4.80;;
55915;SDS011;41826;53.246;-6.670;2023-05-07T01:10:44;12.65;;;4.40;;
55915;SDS011;41826;53.246;-6.670;2023-05-07T01:13:10;12.82;;;4.90;;
55915;SDS011;41826;53.246;-6.670;2023-05-07T01:15:38;11.52;;;4.65;;
55915;SDS011;41826;53.246;-6.670;2023-05-07T01:18:05;15.57;;;5.78;;
55915;SDS011;41826;53.246;-6.670;2023-05-07T01:20:31;16.98;;;4.82;;
55915;SDS011;41826;53.246;-6.670;2023-05-07T01:22:57;16.50;;;5.30;;
55915;SDS011;41826;53.246;-6.670;2023-05-07T01:25:25;14.90;;;5.30;;
55915;SDS011;41826;53.246;-6.670;2023-05-07T01:27:51;9.13;;;4.07;;
55915;SDS011;41826;53.246;-6.670;2023-05-07T01:30:16;12.15;;;4.13;;
55915;SDS011;41826;53.246;-6.670;2023-05-07T01:32:47;16.73;;;4.57;;
55915;SDS011;41826;53.246;-6.670;2023-05-07T01:35:15;17.13;;;4.43;;
55915;SDS011;41826;53.246;-6.670;2023-05-07T01:37:45;12.10;;;4.45;;
55915;SDS011;41826;53.246;-6.670;2023-05-07T01:40:12;9.77;;;4.47;;
55915;SDS011;41826;53.246;-6.670;2023-05-07T01:42:38;11.95;;;4.35;;
55915;SDS011;41826;53.246;-6.670;2023-05-07T01:45:04;16.60;;;4.25;;
55915;SDS011;41826;53.246;-6.670;2023-05-07T01:47:30;13.02;;;5.47;;
55915;SDS011;41826;53.246;-6.670;2023-05-07T01:49:56;12.70;;;4.25;;
55915;SDS011;41826;53.246;-6.670;2023-05-07T01:52:22;13.02;;;4.82;;
55915;SDS011;41826;53.246;-6.670;2023-05-07T01:54:47;15.60;;;4.28;;
55915;SDS011;41826;53.246;-6.670;2023-05-07T01:57:13;11.82;;;4.70;;
55915;SDS011;41826;53.246;-6.670;2023-05-07T01:59:38;16.10;;;5.18;;
55915;SDS011;41826;53.246;-6.670;2023-05-07T02:02:04;13.98;;;4.32;;
55915;SDS011;41826;53.246;-6.670;2023-05-07T02:04:29;12.10;;;4.05;;
55915;SDS011;41826;53.246;-6.670;2023-05-07T02:06:56;14.93;;;4.10;;
55915;SDS011;41826;53.246;-6.670;2023-05-07T02:09:22;9.10;;;4.78;;
55915;SDS011;41826;53.246;-6.670;2023-05-07T02:11:47;14.02;;;4.25;;
55915;SDS011;41826;53.246;-6.670;2023-05-07T02:14:13;8.18;;;4.07;;
55915;SDS011;41826;53.246;-6.670;2023-05-07T02:16:38;13.45;;;4.50;;
55915;SDS011;41826;53.246;-6.670;2023-05-07T02:19:04;11.95;;;4.75;;
55915;SDS011;41826;53.246;-6.670;2023-05-07T02:21:30;13.45;;;3.88;;
55915;SDS011;41826;53.246;-6.670;2023-05-07T02:23:55;16.75;;;4.13;;
55915;SDS011;41826;53.246;-6.670;2023-05-07T02:26:21;11.73;;;4.30;;
55915;SDS011;41826;53.246;-6.670;2023-05-07T02:28:46;8.50;;;4.63;;
55915;SDS011;41826;53.246;-6.670;2023-05-07T02:31:12;13.05;;;5.32;;
55915;SDS011;41826;53.246;-6.670;2023-05-07T02:33:37;10.90;;;4.63;;
55915;SDS011;41826;53.246;-6.670;2023-05-07T02:36:06;13.20;;;4.82;;
55915;SDS011;41826;53.246;-6.670;2023-05-07T02:38:35;7.95;;;4.15;;
55915;SDS011;41826;53.246;-6.670;2023-05-07T02:41:00;14.00;;;4.15;;
55915;SDS011;41826;53.246;-6.670;2023-05-07T02:43:26;12.65;;;4.38;;
55915;SDS011;41826;53.246;-6.670;2023-05-07T02:46:01;6.93;;;3.50;;
55915;SDS011;41826;53.246;-6.670;2023-05-07T02:48:30;6.22;;;3.60;;
55915;SDS011;41826;53.246;-6.670;2023-05-07T02:50:57;10.63;;;3.92;;
55915;SDS011;41826;53.246;-6.670;2023-05-07T02:53:22;8.98;;;4.22;;
55915;SDS011;41826;53.246;-6.670;2023-05-07T02:55:51;8.88;;;3.50;;
55915;SDS011;41826;53.246;-6.670;2023-05-07T02:58:17;17.65;;;5.20;;
55915;SDS011;41826;53.246;-6.670;2023-05-07T03:00:42;7.88;;;3.78;;
55915;SDS011;41826;53.246;-6.670;2023-05-07T03:03:08;15.95;;;4.70;;
55915;SDS011;41826;53.246;-6.670;2023-05-07T03:05:33;20.20;;;4.65;;
55915;SDS011;41826;53.246;-6.670;2023-05-07T03:07:59;7.35;;;3.70;;
55915;SDS011;41826;53.246;-6.670;2023-05-07T03:10:24;15.45;;;4.63;;
55915;SDS011;41826;53.246;-6.670;2023-05-07T03:12:50;10.27;;;4.13;;
55915;SDS011;41826;53.246;-6.670;2023-05-07T03:15:15;11.23;;;3.78;;
55915;SDS011;41826;53.246;-6.670;2023-05-07T03:17:40;14.63;;;4.10;;
55915;SDS011;41826;53.246;-6.670;2023-05-07T03:20:06;10.13;;;4.00;;
55915;SDS011;41826;53.246;-6.670;2023-05-07T03:22:32;8.98;;;3.95;;
55915;SDS011;41826;53.246;-6.670;2023-05-07T03:24:57;4.05;;;2.95;;
55915;SDS011;41826;53.246;-6.670;2023-05-07T03:27:23;5.78;;;3.00;;
55915;SDS011;41826;53.246;-6.670;2023-05-07T03:29:48;4.10;;;2.95;;
55915;SDS011;41826;53.246;-6.670;2023-05-07T03:32:16;5.88;;;2.90;;
55915;SDS011;41826;53.246;-6.670;2023-05-07T03:34:42;11.40;;;2.83;;
55915;SDS011;41826;53.246;-6.670;2023-05-07T03:37:07;7.65;;;3.45;;
55915;SDS011;41826;53.246;-6.670;2023-05-07T03:39:34;12.07;;;3.55;;
55915;SDS011;41826;53.246;-6.670;2023-05-07T03:41:59;6.95;;;2.88;;
55915;SDS011;41826;53.246;-6.670;2023-05-07T03:44:26;5.50;;;3.03;;
55915;SDS011;41826;53.246;-6.670;2023-05-07T03:46:51;6.72;;;3.00;;
55915;SDS011;41826;53.246;-6.670;2023-05-07T03:49:16;3.97;;;2.78;;
55915;SDS011;41826;53.246;-6.670;2023-05-07T03:51:42;7.60;;;2.13;;
55915;SDS011;41826;53.246;-6.670;2023-05-07T03:54:08;4.90;;;2.50;;
55915;SDS011;41826;53.246;-6.670;2023-05-07T03:56:34;5.13;;;2.60;;
55915;SDS011;41826;53.246;-6.670;2023-05-07T03:59:00;6.78;;;3.10;;
55915;SDS011;41826;53.246;-6.670;2023-05-07T04:01:26;4.25;;;2.60;;
55915;SDS011;41826;53.246;-6.670;2023-05-07T04:03:52;3.53;;;3.03;;
55915;SDS011;41826;53.246;-6.670;2023-05-07T04:06:17;3.15;;;2.63;;
55915;SDS011;41826;53.246;-6.670;2023-05-07T04:08:43;4.82;;;2.58;;
55915;SDS011;41826;53.246;-6.670;2023-05-07T04:11:08;6.05;;;3.22;;
55915;SDS011;41826;53.246;-6.670;2023-05-07T04:13:33;3.63;;;2.42;;
55915;SDS011;41826;53.246;-6.670;2023-05-07T04:16:00;4.10;;;3.05;;
55915;SDS011;41826;53.246;-6.670;2023-05-07T04:18:27;3.92;;;2.38;;
55915;SDS011;41826;53.246;-6.670;2023-05-07T04:20:53;4.70;;;2.65;;
55915;SDS011;41826;53.246;-6.670;2023-05-07T04:23:18;4.80;;;2.47;;
55915;SDS011;41826;53.246;-6.670;2023-05-07T04:25:44;3.83;;;2.00;;
55915;SDS011;41826;53.246;-6.670;2023-05-07T04:28:10;4.57;;;2.40;;
55915;SDS011;41826;53.246;-6.670;2023-05-07T04:30:36;5.70;;;2.20;;
55915;SDS011;41826;53.246;-6.670;2023-05-07T04:33:02;9.52;;;3.08;;
55915;SDS011;41826;53.246;-6.670;2023-05-07T04:35:27;5.88;;;2.85;;
55915;SDS011;41826;53.246;-6.670;2023-05-07T04:37:53;4.53;;;2.65;;
55915;SDS011;41826;53.246;-6.670;2023-05-07T04:40:18;6.45;;;2.83;;
55915;SDS011;41826;53.246;-6.670;2023-05-07T04:42:43;5.18;;;2.90;;
55915;SDS011;41826;53.246;-6.670;2023-05-07T04:45:10;9.18;;;3.60;;
55915;SDS011;41826;53.246;-6.670;2023-05-07T04:47:35;7.57;;;3.00;;
55915;SDS011;41826;53.246;-6.670;2023-05-07T04:50:01;7.28;;;3.03;;
55915;SDS011;41826;53.246;-6.670;2023-05-07T04:52:27;7.50;;;3.42;;
55915;SDS011;41826;53.246;-6.670;2023-05-07T04:54:52;6.45;;;3.60;;
55915;SDS011;41826;53.246;-6.670;2023-05-07T04:57:17;5.47;;;2.40;;
55915;SDS011;41826;53.246;-6.670;2023-05-07T04:59:43;6.55;;;3.03;;
55915;SDS011;41826;53.246;-6.670;2023-05-07T05:02:12;7.07;;;3.13;;
55915;SDS011;41826;53.246;-6.670;2023-05-07T05:04:37;9.43;;;3.30;;
55915;SDS011;41826;53.246;-6.670;2023-05-07T05:07:03;6.35;;;2.90;;
55915;SDS011;41826;53.246;-6.670;2023-05-07T05:09:29;6.82;;;3.05;;
55915;SDS011;41826;53.246;-6.670;2023-05-07T05:11:55;5.55;;;2.67;;
55915;SDS011;41826;53.246;-6.670;2023-05-07T05:14:20;10.13;;;3.22;;
55915;SDS011;41826;53.246;-6.670;2023-05-07T05:16:45;6.85;;;3.15;;
55915;SDS011;41826;53.246;-6.670;2023-05-07T05:19:17;5.10;;;3.15;;
55915;SDS011;41826;53.246;-6.670;2023-05-07T05:21:42;5.50;;;2.72;;
55915;SDS011;41826;53.246;-6.670;2023-05-07T05:24:08;6.75;;;2.75;;
55915;SDS011;41826;53.246;-6.670;2023-05-07T05:26:33;4.57;;;2.00;;
55915;SDS011;41826;53.246;-6.670;2023-05-07T05:28:59;2.58;;;1.83;;
55915;SDS011;41826;53.246;-6.670;2023-05-07T05:31:25;2.67;;;1.70;;
55915;SDS011;41826;53.246;-6.670;2023-05-07T05:33:50;2.00;;;1.63;;
55915;SDS011;41826;53.246;-6.670;2023-05-07T05:36:16;3.95;;;1.88;;
55915;SDS011;41826;53.246;-6.670;2023-05-07T05:38:42;3.60;;;1.80;;
55915;SDS011;41826;53.246;-6.670;2023-05-07T05:41:07;6.38;;;3.58;;
55915;SDS011;41826;53.246;-6.670;2023-05-07T05:43:32;5.28;;;2.65;;
55915;SDS011;41826;53.246;-6.670;2023-05-07T05:45:58;6.15;;;2.70;;
55915;SDS011;41826;53.246;-6.670;2023-05-07T05:48:24;7.43;;;2.50;;
55915;SDS011;41826;53.246;-6.670;2023-05-07T05:50:49;2.75;;;2.47;;
55915;SDS011;41826;53.246;-6.670;2023-05-07T05:53:14;4.72;;;2.13;;
55915;SDS011;41826;53.246;-6.670;2023-05-07T05:55:41;3.75;;;2.50;;
55915;SDS011;41826;53.246;-6.670;2023-05-07T05:58:06;7.45;;;2.60;;
55915;SDS011;41826;53.246;-6.670;2023-05-07T06:00:32;3.03;;;2.13;;
55915;SDS011;41826;53.246;-6.670;2023-05-07T06:02:58;3.55;;;1.38;;
55915;SDS011;41826;53.246;-6.670;2023-05-07T06:05:23;3.95;;;1.58;;
55915;SDS011;41826;53.246;-6.670;2023-05-07T06:07:48;2.47;;;1.88;;
55915;SDS011;41826;53.246;-6.670;2023-05-07T06:10:14;3.72;;;1.45;;
55915;SDS011;41826;53.246;-6.670;2023-05-07T06:12:39;1.92;;;1.40;;
55915;SDS011;41826;53.246;-6.670;2023-05-07T06:15:05;3.20;;;1.60;;
55915;SDS011;41826;53.246;-6.670;2023-05-07T06:17:31;2.92;;;1.45;;
55915;SDS011;41826;53.246;-6.670;2023-05-07T06:19:56;3.33;;;2.00;;
55915;SDS011;41826;53.246;-6.670;2023-05-07T06:22:22;3.67;;;1.70;;
55915;SDS011;41826;53.246;-6.670;2023-05-07T06:24:47;3.47;;;1.95;;
55915;SDS011;41826;53.246;-6.670;2023-05-07T06:27:13;2.38;;;1.50;;
55915;SDS011;41826;53.246;-6.670;2023-05-07T06:29:38;2.80;;;1.63;;
55915;SDS011;41826;53.246;-6.670;2023-05-07T06:32:10;3.15;;;1.80;;
55915;SDS011;41826;53.246;-6.670;2023-05-07T06:34:36;1.95;;;1.60;;
55915;SDS011;41826;53.246;-6.670;2023-05-07T06:37:03;1.38;;;1.17;;
55915;SDS011;41826;53.246;-6.670;2023-05-07T06:39:28;3.35;;;1.40;;
55915;SDS011;41826;53.246;-6.670;2023-05-07T06:41:53;2.67;;;1.50;;
55915;SDS011;41826;53.246;-6.670;2023-05-07T06:44:19;2.20;;;1.27;;
55915;SDS011;41826;53.246;-6.670;2023-05-07T06:46:45;1.38;;;1.15;;
55915;SDS011;41826;53.246;-6.670;2023-05-07T06:49:11;1.90;;;1.33;;
55915;SDS011;41826;53.246;-6.670;2023-05-07T06:51:37;4.20;;;1.50;;
55915;SDS011;41826;53.246;-6.670;2023-05-07T06:54:03;1.40;;;1.30;;
55915;SDS011;41826;53.246;-6.670;2023-05-07T06:56:29;4.05;;;1.60;;
55915;SDS011;41826;53.246;-6.670;2023-05-07T06:58:55;2.80;;;1.52;;
55915;SDS011;41826;53.246;-6.670;2023-05-07T07:01:20;3.00;;;1.60;;
55915;SDS011;41826;53.246;-6.670;2023-05-07T07:03:46;4.60;;;1.70;;
55915;SDS011;41826;53.246;-6.670;2023-05-07T07:06:11;5.28;;;1.92;;
55915;SDS011;41826;53.246;-6.670;2023-05-07T07:08:37;1.92;;;1.70;;
55915;SDS011;41826;53.246;-6.670;2023-05-07T07:11:03;3.63;;;2.55;;
55915;SDS011;41826;53.246;-6.670;2023-05-07T07:13:29;4.50;;;2.50;;
55915;SDS011;41826;53.246;-6.670;2023-05-07T07:15:55;2.90;;;2.20;;
55915;SDS011;41826;53.246;-6.670;2023-05-07T07:18:20;4.90;;;2.35;;
55915;SDS011;41826;53.246;-6.670;2023-05-07T07:20:46;3.55;;;2.03;;
55915;SDS011;41826;53.246;-6.670;2023-05-07T07:23:11;2.85;;;1.98;;
55915;SDS011;41826;53.246;-6.670;2023-05-07T07:25:36;3.42;;;2.10;;
55915;SDS011;41826;53.246;-6.670;2023-05-07T07:28:02;5.30;;;1.77;;
55915;SDS011;41826;53.246;-6.670;2023-05-07T07:30:27;3.90;;;1.83;;
55915;SDS011;41826;53.246;-6.670;2023-05-07T07:32:53;4.53;;;1.60;;
55915;SDS011;41826;53.246;-6.670;2023-05-07T07:35:18;4.15;;;1.92;;
55915;SDS011;41826;53.246;-6.670;2023-05-07T07:37:44;9.25;;;2.35;;
55915;SDS011;41826;53.246;-6.670;2023-05-07T07:40:09;5.38;;;2.10;;
55915;SDS011;41826;53.246;-6.670;2023-05-07T07:42:36;3.25;;;2.10;;
55915;SDS011;41826;53.246;-6.670;2023-05-07T07:45:02;4.88;;;2.13;;
55915;SDS011;41826;53.246;-6.670;2023-05-07T07:47:28;3.40;;;2.20;;
55915;SDS011;41826;53.246;-6.670;2023-05-07T07:49:53;4.65;;;2.30;;
55915;SDS011;41826;53.246;-6.670;2023-05-07T07:52:18;3.80;;;2.30;;
55915;SDS011;41826;53.246;-6.670;2023-05-07T07:54:45;3.38;;;2.40;;
55915;SDS011;41826;53.246;-6.670;2023-05-07T07:57:11;2.58;;;2.38;;
55915;SDS011;41826;53.246;-6.670;2023-05-07T07:59:36;3.03;;;2.33;;
55915;SDS011;41826;53.246;-6.670;2023-05-07T08:02:02;4.45;;;2.13;;
55915;SDS011;41826;53.246;-6.670;2023-05-07T08:04:27;2.60;;;2.40;;
55915;SDS011;41826;53.246;-6.670;2023-05-07T08:06:52;2.22;;;1.63;;
55915;SDS011;41826;53.246;-6.670;2023-05-07T08:09:19;3.17;;;1.52;;
55915;SDS011;41826;53.246;-6.670;2023-05-07T08:11:44;4.70;;;1.70;;
55915;SDS011;41826;53.246;-6.670;2023-05-07T08:14:10;3.85;;;2.03;;
55915;SDS011;41826;53.246;-6.670;2023-05-07T08:16:36;4.72;;;2.10;;
55915;SDS011;41826;53.246;-6.670;2023-05-07T08:19:01;2.20;;;1.95;;
55915;SDS011;41826;53.246;-6.670;2023-05-07T08:21:27;2.58;;;1.75;;
55915;SDS011;41826;53.246;-6.670;2023-05-07T08:23:52;1.85;;;1.33;;
55915;SDS011;41826;53.246;-6.670;2023-05-07T08:26:18;6.07;;;1.98;;
55915;SDS011;41826;53.246;-6.670;2023-05-07T08:28:43;2.80;;;1.23;;
55915;SDS011;41826;53.246;-6.670;2023-05-07T08:31:08;3.55;;;1.58;;
55915;SDS011;41826;53.246;-6.670;2023-05-07T08:33:34;2.30;;;1.38;;
55915;SDS011;41826;53.246;-6.670;2023-05-07T08:35:59;4.07;;;1.75;;
55915;SDS011;41826;53.246;-6.670;2023-05-07T08:38:25;1.35;;;1.10;;
55915;SDS011;41826;53.246;-6.670;2023-05-07T08:40:50;3.17;;;1.60;;
55915;SDS011;41826;53.246;-6.670;2023-05-07T08:43:16;4.30;;;1.30;;
55915;SDS011;41826;53.246;-6.670;2023-05-07T08:45:43;1.58;;;1.08;;
55915;SDS011;41826;53.246;-6.670;2023-05-07T08:48:17;4.03;;;1.45;;
55915;SDS011;41826;53.246;-6.670;2023-05-07T08:50:42;4.70;;;1.77;;
55915;SDS011;41826;53.246;-6.670;2023-05-07T08:53:08;3.08;;;1.20;;
55915;SDS011;41826;53.246;-6.670;2023-05-07T08:55:34;1.65;;;1.20;;
55915;SDS011;41826;53.246;-6.670;2023-05-07T08:57:59;2.05;;;1.15;;
55915;SDS011;41826;53.246;-6.670;2023-05-07T09:00:25;3.20;;;1.77;;
55915;SDS011;41826;53.246;-6.670;2023-05-07T09:02:52;3.72;;;1.30;;
55915;SDS011;41826;53.246;-6.670;2023-05-07T09:05:17;2.28;;;1.60;;
55915;SDS011;41826;53.246;-6.670;2023-05-07T09:07:43;4.13;;;1.20;;
55915;SDS011;41826;53.246;-6.670;2023-05-07T09:10:09;2.65;;;1.05;;
55915;SDS011;41826;53.246;-6.670;2023-05-07T09:12:34;3.00;;;1.10;;
55915;SDS011;41826;53.246;-6.670;2023-05-07T09:15:01;2.15;;;1.00;;
55915;SDS011;41826;53.246;-6.670;2023-05-07T09:17:27;4.10;;;1.15;;
55915;SDS011;41826;53.246;-6.670;2023-05-07T09:19:53;5.72;;;3.10;;
55915;SDS011;41826;53.246;-6.670;2023-05-07T09:22:18;4.63;;;2.67;;
55915;SDS011;41826;53.246;-6.670;2023-05-07T09:24:47;1.83;;;0.80;;
55915;SDS011;41826;53.246;-6.670;2023-05-07T09:27:14;1.30;;;1.00;;
55915;SDS011;41826;53.246;-6.670;2023-05-07T09:29:39;3.45;;;1.23;;
55915;SDS011;41826;53.246;-6.670;2023-05-07T09:32:05;3.50;;;0.90;;
55915;SDS011;41826;53.246;-6.670;2023-05-07T09:34:31;3.40;;;0.93;;
55915;SDS011;41826;53.246;-6.670;2023-05-07T09:37:01;2.88;;;1.15;;
55915;SDS011;41826;53.246;-6.670;2023-05-07T09:39:47;2.10;;;1.00;;
55915;SDS011;41826;53.246;-6.670;2023-05-07T09:42:13;0.98;;;0.80;;
55915;SDS011;41826;53.246;-6.670;2023-05-07T09:44:45;5.97;;;1.45;;
55915;SDS011;41826;53.246;-6.670;2023-05-07T09:47:11;1.17;;;1.00;;
55915;SDS011;41826;53.246;-6.670;2023-05-07T09:49:44;2.80;;;0.85;;
55915;SDS011;41826;53.246;-6.670;2023-05-07T09:52:13;1.80;;;1.00;;
55915;SDS011;41826;53.246;-6.670;2023-05-07T09:54:39;2.17;;;0.88;;
55915;SDS011;41826;53.246;-6.670;2023-05-07T09:57:09;1.02;;;0.80;;
55915;SDS011;41826;53.246;-6.670;2023-05-07T09:59:36;4.03;;;0.73;;
55915;SDS011;41826;53.246;-6.670;2023-05-07T10:02:04;7.22;;;0.90;;
55915;SDS011;41826;53.246;-6.670;2023-05-07T10:04:31;3.65;;;1.20;;
55915;SDS011;41826;53.246;-6.670;2023-05-07T10:06:57;1.90;;;0.70;;
55915;SDS011;41826;53.246;-6.670;2023-05-07T10:09:23;5.10;;;0.90;;
55915;SDS011;41826;53.246;-6.670;2023-05-07T10:11:51;2.50;;;1.10;;
55915;SDS011;41826;53.246;-6.670;2023-05-07T10:14:17;1.15;;;0.70;;
55915;SDS011;41826;53.246;-6.670;2023-05-07T10:16:45;3.92;;;1.00;;
55915;SDS011;41826;53.246;-6.670;2023-05-07T10:19:12;2.47;;;0.90;;
55915;SDS011;41826;53.246;-6.670;2023-05-07T10:21:39;1.48;;;0.80;;
55915;SDS011;41826;53.246;-6.670;2023-05-07T10:24:20;2.95;;;0.65;;
55915;SDS011;41826;53.246;-6.670;2023-05-07T10:26:50;2.45;;;0.80;;
55915;SDS011;41826;53.246;-6.670;2023-05-07T10:34:24;0.85;;;0.77;;
55915;SDS011;41826;53.246;-6.670;2023-05-07T10:36:54;4.70;;;1.48;;
55915;SDS011;41826;53.246;-6.670;2023-05-07T10:39:21;2.20;;;0.90;;
55915;SDS011;41826;53.246;-6.670;2023-05-07T10:41:47;3.95;;;1.10;;
55915;SDS011;41826;53.246;-6.670;2023-05-07T10:44:29;2.20;;;0.70;;
55915;SDS011;41826;53.246;-6.670;2023-05-07T10:47:07;7.15;;;1.08;;
55915;SDS011;41826;53.246;-6.670;2023-05-07T10:52:11;3.45;;;1.35;;
55915;SDS011;41826;53.246;-6.670;2023-05-07T10:54:36;2.42;;;1.10;;
55915;SDS011;41826;53.246;-6.670;2023-05-07T11:05:29;1.45;;;0.70;;
55915;SDS011;41826;53.246;-6.670;2023-05-07T11:13:15;2.22;;;0.68;;
55915;SDS011;41826;53.246;-6.670;2023-05-07T11:15:43;0.80;;;0.60;;
55915;SDS011;41826;53.246;-6.670;2023-05-07T11:18:13;1.42;;;0.70;;
55915;SDS011;41826;53.246;-6.670;2023-05-07T11:26:05;1.15;;;0.60;;
55915;SDS011;41826;53.246;-6.670;2023-05-07T11:28:36;2.00;;;0.85;;
55915;SDS011;41826;53.246;-6.670;2023-05-07T11:31:03;1.80;;;0.82;;
55915;SDS011;41826;53.246;-6.670;2023-05-07T11:33:32;0.60;;;0.60;;
55915;SDS011;41826;53.246;-6.670;2023-05-07T11:35:59;0.95;;;0.80;;
55915;SDS011;41826;53.246;-6.670;2023-05-07T11:38:25;0.73;;;0.73;;
55915;SDS011;41826;53.246;-6.670;2023-05-07T11:40:57;1.75;;;0.90;;
55915;SDS011;41826;53.246;-6.670;2023-05-07T11:43:25;1.65;;;0.70;;
55915;SDS011;41826;53.246;-6.670;2023-05-07T11:45:52;1.13;;;0.80;;
55915;SDS011;41826;53.246;-6.670;2023-05-07T11:48:17;1.10;;;0.80;;
55915;SDS011;41826;53.246;-6.670;2023-05-07T11:53:27;1.20;;;0.68;;
55915;SDS011;41826;53.246;-6.670;2023-05-07T11:55:59;2.00;;;0.85;;
55915;SDS011;41826;53.246;-6.670;2023-05-07T11:58:30;2.55;;;0.85;;
55915;SDS011;41826;53.246;-6.670;2023-05-07T12:00:56;1.80;;;0.70;;
55915;SDS011;41826;53.246;-6.670;2023-05-07T12:03:21;1.83;;;0.73;;
55915;SDS011;41826;53.246;-6.670;2023-05-07T12:05:47;0.98;;;0.70;;
55915;SDS011;41826;53.246;-6.670;2023-05-07T12:08:13;1.80;;;0.60;;
55915;SDS011;41826;53.246;-6.670;2023-05-07T12:10:43;1.15;;;0.80;;
55915;SDS011;41826;53.246;-6.670;2023-05-07T12:13:19;3.67;;;0.93;;
55915;SDS011;41826;53.246;-6.670;2023-05-07T12:15:47;0.98;;;0.85;;
55915;SDS011;41826;53.246;-6.670;2023-05-07T12:18:16;2.92;;;1.27;;
55915;SDS011;41826;53.246;-6.670;2023-05-07T12:20:41;2.35;;;0.98;;
55915;SDS011;41826;53.246;-6.670;2023-05-07T12:23:08;1.85;;;0.82;;
55915;SDS011;41826;53.246;-6.670;2023-05-07T12:25:34;1.65;;;1.08;;
55915;SDS011;41826;53.246;-6.670;2023-05-07T12:28:01;1.20;;;0.80;;
55915;SDS011;41826;53.246;-6.670;2023-05-07T12:30:27;2.88;;;1.10;;
55915;SDS011;41826;53.246;-6.670;2023-05-07T12:32:55;3.55;;;0.60;;
55915;SDS011;41826;53.246;-6.670;2023-05-07T12:35:27;2.03;;;0.60;;
55915;SDS011;41826;53.246;-6.670;2023-05-07T12:37:54;1.35;;;0.60;;
55915;SDS011;41826;53.246;-6.670;2023-05-07T12:40:21;1.33;;;0.60;;
55915;SDS011;41826;53.246;-6.670;2023-05-07T12:42:47;0.80;;;0.60;;
55915;SDS011;41826;53.246;-6.670;2023-05-07T12:45:19;2.63;;;0.77;;
55915;SDS011;41826;53.246;-6.670;2023-05-07T12:47:45;1.30;;;0.70;;
55915;SDS011;41826;53.246;-6.670;2023-05-07T12:50:12;1.73;;;0.80;;
55915;SDS011;41826;53.246;-6.670;2023-05-07T12:52:39;7.55;;;2.58;;
55915;SDS011;41826;53.246;-6.670;2023-05-07T12:55:07;4.43;;;0.80;;
55915;SDS011;41826;53.246;-6.670;2023-05-07T12:57:40;2.70;;;0.60;;
55915;SDS011;41826;53.246;-6.670;2023-05-07T13:02:38;1.33;;;0.80;;
55915;SDS011;41826;53.246;-6.670;2023-05-07T13:05:05;3.47;;;0.85;;
55915;SDS011;41826;53.246;-6.670;2023-05-07T13:07:31;1.75;;;0.70;;
55915;SDS011;41826;53.246;-6.670;2023-05-07T13:09:56;2.95;;;0.60;;
55915;SDS011;41826;53.246;-6.670;2023-05-07T13:12:22;2.78;;;1.23;;
55915;SDS011;41826;53.246;-6.670;2023-05-07T13:14:47;2.25;;;0.73;;
55915;SDS011;41826;53.246;-6.670;2023-05-07T13:17:12;2.85;;;0.90;;
55915;SDS011;41826;53.246;-6.670;2023-05-07T13:19:38;1.60;;;0.70;;
55915;SDS011;41826;53.246;-6.670;2023-05-07T13:22:03;1.27;;;1.00;;
55915;SDS011;41826;53.246;-6.670;2023-05-07T13:24:29;1.33;;;0.63;;
55915;SDS011;41826;53.246;-6.670;2023-05-07T13:26:54;17.92;;;6.60;;
55915;SDS011;41826;53.246;-6.670;2023-05-07T13:29:20;3.45;;;1.05;;
55915;SDS011;41826;53.246;-6.670;2023-05-07T13:31:53;1.20;;;0.60;;
55915;SDS011;41826;53.246;-6.670;2023-05-07T13:34:19;4.70;;;2.45;;
55915;SDS011;41826;53.246;-6.670;2023-05-07T13:36:44;0.65;;;0.60;;
55915;SDS011;41826;53.246;-6.670;2023-05-07T13:39:10;0.93;;;0.60;;
55915;SDS011;41826;53.246;-6.670;2023-05-07T13:41:35;3.20;;;0.73;;
55915;SDS011;41826;53.246;-6.670;2023-05-07T13:44:00;1.60;;;0.90;;
55915;SDS011;41826;53.246;-6.670;2023-05-07T13:46:26;2.72;;;0.77;;
55915;SDS011;41826;53.246;-6.670;2023-05-07T13:48:51;2.47;;;0.80;;
55915;SDS011;41826;53.246;-6.670;2023-05-07T13:51:17;1.17;;;0.73;;
55915;SDS011;41826;53.246;-6.670;2023-05-07T13:53:43;2.47;;;0.50;;
55915;SDS011;41826;53.246;-6.670;2023-05-07T13:56:08;2.08;;;0.63;;
55915;SDS011;41826;53.246;-6.670;2023-05-07T13:58:33;0.60;;;0.60;;
55915;SDS011;41826;53.246;-6.670;2023-05-07T14:01:01;2.88;;;0.70;;
55915;SDS011;41826;53.246;-6.670;2023-05-07T14:03:26;1.52;;;0.93;;
55915;SDS011;41826;53.246;-6.670;2023-05-07T14:05:52;2.80;;;0.75;;
55915;SDS011;41826;53.246;-6.670;2023-05-07T14:08:17;1.63;;;0.70;;
55915;SDS011;41826;53.246;-6.670;2023-05-07T14:10:44;1.38;;;0.80;;
55915;SDS011;41826;53.246;-6.670;2023-05-07T14:13:11;4.18;;;0.90;;
55915;SDS011;41826;53.246;-6.670;2023-05-07T14:15:36;3.55;;;0.90;;
55915;SDS011;41826;53.246;-6.670;2023-05-07T14:18:02;1.42;;;0.90;;
55915;SDS011;41826;53.246;-6.670;2023-05-07T14:20:28;1.20;;;0.82;;
55915;SDS011;41826;53.246;-6.670;2023-05-07T14:22:55;3.55;;;1.00;;
55915;SDS011;41826;53.246;-6.670;2023-05-07T14:25:20;2.42;;;1.10;;
55915;SDS011;41826;53.246;-6.670;2023-05-07T14:27:46;1.02;;;0.60;;
55915;SDS011;41826;53.246;-6.670;2023-05-07T14:30:11;2.88;;;0.90;;
55915;SDS011;41826;53.246;-6.670;2023-05-07T14:32:37;2.83;;;1.05;;
55915;SDS011;41826;53.246;-6.670;2023-05-07T14:35:02;2.25;;;0.70;;
55915;SDS011;41826;53.246;-6.670;2023-05-07T14:37:28;1.13;;;0.80;;
55915;SDS011;41826;53.246;-6.670;2023-05-07T14:39:53;3.63;;;0.88;;
55915;SDS011;41826;53.246;-6.670;2023-05-07T14:42:22;2.00;;;0.80;;
55915;SDS011;41826;53.246;-6.670;2023-05-07T14:44:47;2.97;;;1.10;;
55915;SDS011;41826;53.246;-6.670;2023-05-07T14:47:13;5.20;;;1.00;;
55915;SDS011;41826;53.246;-6.670;2023-05-07T14:49:39;3.22;;;1.13;;
55915;SDS011;41826;53.246;-6.670;2023-05-07T14:52:05;2.55;;;1.00;;
55915;SDS011;41826;53.246;-6.670;2023-05-07T14:54:33;2.90;;;1.13;;
55915;SDS011;41826;53.246;-6.670;2023-05-07T14:57:00;3.28;;;1.05;;